Time;durP1;ratioP1;P1;durP2;ratioP2;P2;SDS_P1;SDS_P2;PMS_P1;PMS_P2;Temp;Humidity;BMP_temperature;BMP_pressure;BME280_temperature;BME280_humidity;BME280_pressure;Samples;Min_cycle;Max_cycle;Signal;HPM_P1;HPM_P2
2022/03/15 00:00:27;;;;;;;;;;;;;;;-145.18;100.00;46554.91;4952084;28;20410;-66
2022/03/15 00:02:52;;;;;;;;;;;;;;;-145.18;100.00;46560.78;4951918;28;19929;-66
2022/03/15 00:05:18;;;;;;;;;;;;;;;-145.18;100.00;46560.78;4952514;28;20299;-66
2022/03/15 00:07:44;;;;;;;;;;;;;;;-145.18;100.00;46560.78;4951973;28;19922;-66
2022/03/15 00:10:12;;;;;;;;;;;;;;;-145.18;100.00;46552.97;4953411;28;19929;-66
2022/03/15 00:12:37;;;;;;;;;;;;;;;-145.18;100.00;46556.88;4951733;28;20294;-65
2022/03/15 00:15:02;;;;;;;;;;;;;;;-145.18;100.00;46552.97;4952139;28;20009;-66
2022/03/15 00:17:28;;;;;;;;;;;;;;;-145.18;100.00;46609.59;4951435;28;20325;-66
2022/03/15 00:19:54;;;;;;;;;;;;;;;-145.18;100.00;46560.78;4950811;28;20024;-66
2022/03/15 00:22:19;;;;;;;;;;;;;;;-145.18;100.00;46554.91;4951677;28;20009;-66
2022/03/15 00:24:46;;;;;;;;;;;;;;;-145.18;100.00;46558.81;4951418;28;19966;-66
2022/03/15 00:27:12;;;;;;;;;;;;;;;-145.18;100.00;46554.91;4951556;28;19922;-66
2022/03/15 00:29:38;;;;;;;;;;;;;;;-145.18;100.00;46554.91;4951771;28;20009;-66
2022/03/15 00:32:05;;;;;;;;;;;;;;;-145.18;100.00;46558.81;4950554;28;19946;-66
2022/03/15 00:34:30;;;;;;;;;;;;;;;-145.18;100.00;46554.91;4934921;28;19927;-66
2022/03/15 00:36:55;;;;;;;;;;;;;;;-145.18;100.00;46554.91;4951801;28;19923;-65
2022/03/15 00:39:20;;;;;;;;;;;;;;;-145.18;100.00;46566.63;4934283;28;20299;-66
2022/03/15 00:41:46;;;;;;;;;;;;;;;-145.18;100.00;46562.72;4951826;28;19919;-66
2022/03/15 00:44:11;;;;;;;;;;;;;;;-145.18;100.00;46564.69;4952132;28;19922;-66
2022/03/15 00:46:36;;;;;;;;;;;;;;;-145.18;100.00;46562.72;4951360;28;19922;-66
2022/03/15 00:49:02;;;;;;;;;;;;;;;-145.18;100.00;46564.69;4951877;28;19923;-66
2022/03/15 00:51:29;;;;;;;;;;;;;;;-145.18;100.00;46570.53;4951383;28;19934;-66
2022/03/15 00:53:54;;;;;;;;;;;;;;;-145.18;100.00;46615.47;4951520;28;20005;-66
2022/03/15 00:56:19;;;;;;;;;;;;;;;-145.18;100.00;46617.41;4951976;28;20053;-66
2022/03/15 00:58:45;;;;;;;;;;;;;;;-145.18;100.00;46633.06;4951394;28;19919;-66
2022/03/15 01:01:10;;;;;;;;;;;;;;;-145.18;100.00;46631.09;4934507;28;21879;-66
2022/03/15 01:03:35;;;;;;;;;;;;;;;-145.18;100.00;46623.28;4950678;28;19926;-66
2022/03/15 01:06:00;;;;;;;;;;;;;;;-145.18;100.00;46623.28;4951167;28;20655;-66
2022/03/15 01:08:26;;;;;;;;;;;;;;;-145.18;100.00;46635.00;4950911;28;19918;-66
2022/03/15 01:10:51;;;;;;;;;;;;;;;-145.18;100.00;46642.81;4951958;28;20033;-66
2022/03/15 01:13:16;;;;;;;;;;;;;;;-145.18;100.00;46660.41;4950860;28;19929;-66
2022/03/15 01:15:44;;;;;;;;;;;;;;;-145.18;100.00;46660.41;4951479;28;20435;-66
2022/03/15 01:18:13;;;;;;;;;;;;;;;-145.18;100.00;46660.41;4950610;28;20299;-66
2022/03/15 01:20:40;;;;;;;;;;;;;;;-145.18;100.00;46656.50;4951110;28;19922;-66
2022/03/15 01:23:05;;;;;;;;;;;;;;;-145.18;100.00;46668.22;4950715;28;19925;-66
2022/03/15 01:25:30;;;;;;;;;;;;;;;-145.18;100.00;46670.16;4950634;28;19919;-66
2022/03/15 01:27:56;;;;;;;;;;;;;;;-145.18;100.00;46672.13;4950503;28;19918;-66
2022/03/15 01:30:21;;;;;;;;;;;;;;;-145.18;100.00;46677.97;4951428;28;19962;-66
2022/03/15 01:32:47;;;;;;;;;;;;;;;-145.18;100.00;46681.88;4950575;28;19925;-66
2022/03/15 01:35:12;;;;;;;;;;;;;;;-145.18;100.00;46685.78;4950812;28;19998;-66
2022/03/15 01:37:37;;;;;;;;;;;;;;;-145.18;100.00;46674.06;4949345;28;20465;-66
2022/03/15 01:40:02;;;;;;;;;;;;;;;-145.18;100.00;46681.88;4950438;28;20426;-66
2022/03/15 01:42:28;;;;;;;;;;;;;;;-145.18;100.00;46681.88;4949924;28;20372;-66
2022/03/15 01:44:53;;;;;;;;;;;;;;;-145.18;100.00;46679.94;4951388;28;19918;-66
2022/03/15 01:47:19;;;;;;;;;;;;;;;-145.18;100.00;46674.06;4932527;28;19926;-66
2022/03/15 01:49:44;;;;;;;;;;;;;;;-145.18;100.00;46679.94;4950656;28;19922;-66
2022/03/15 01:52:12;;;;;;;;;;;;;;;-145.18;100.00;46677.97;4950203;28;19926;-66
2022/03/15 01:54:38;;;;;;;;;;;;;;;-145.18;100.00;46674.06;4949894;28;19926;-66
2022/03/15 01:57:07;;;;;;;;;;;;;;;-145.18;100.00;46681.88;4949790;28;19978;-66
2022/03/15 01:59:32;;;;;;;;;;;;;;;-145.18;100.00;46676.03;4949877;28;19922;-66
2022/03/15 02:01:58;;;;;;;;;;;;;;;-145.18;100.00;46676.03;5202576;23;19927;-67
2022/03/15 02:04:24;;;;;;;;;;;;;;;-145.18;100.00;46683.84;4919667;29;19945;-67
2022/03/15 02:06:50;;;;;;;;;;;;;;;-145.18;100.00;46677.97;4931132;29;20057;-67
2022/03/15 02:09:15;;;;;;;;;;;;;;;-145.18;100.00;46677.97;4930336;29;19970;-66
2022/03/15 02:11:42;;;;;;;;;;;;;;;-145.18;100.00;46679.94;4931906;29;19926;-66
2022/03/15 02:14:08;;;;;;;;;;;;;;;-145.18;100.00;46681.88;4930593;29;20363;-67
2022/03/15 02:16:34;;;;;;;;;;;;;;;-145.18;100.00;46672.13;4914207;29;20021;-66
2022/03/15 02:19:00;;;;;;;;;;;;;;;-145.18;100.00;46676.03;4930504;29;19919;-67
2022/03/15 02:21:26;;;;;;;;;;;;;;;-145.18;100.00;46679.94;4931004;29;20303;-67
2022/03/15 02:23:52;;;;;;;;;;;;;;;-145.18;100.00;46674.06;4930421;29;20010;-67
2022/03/15 02:26:17;;;;;;;;;;;;;;;-145.18;100.00;46676.03;4931261;29;20013;-66
2022/03/15 02:28:43;;;;;;;;;;;;;;;-145.18;100.00;46676.03;4930503;29;19919;-67
2022/03/15 02:31:09;;;;;;;;;;;;;;;-145.18;100.00;46679.94;4930574;29;19922;-66
2022/03/15 02:33:34;;;;;;;;;;;;;;;-145.18;100.00;46681.88;4930188;29;20390;-66
2022/03/15 02:35:59;;;;;;;;;;;;;;;-145.18;100.00;46681.88;4930664;29;19923;-66
2022/03/15 02:38:24;;;;;;;;;;;;;;;-145.18;100.00;46679.94;4930809;29;19919;-67
2022/03/15 02:40:50;;;;;;;;;;;;;;;-145.18;100.00;46683.84;4930131;29;19919;-66
2022/03/15 02:43:15;;;;;;;;;;;;;;;-145.18;100.00;46683.84;4930515;29;20380;-66
2022/03/15 02:45:40;;;;;;;;;;;;;;;-145.18;100.00;46677.97;4931175;29;19923;-66
2022/03/15 02:48:05;;;;;;;;;;;;;;;-145.18;100.00;46676.03;4930154;29;20025;-66
2022/03/15 02:50:31;;;;;;;;;;;;;;;-145.18;100.00;46681.88;4930885;29;19919;-66
2022/03/15 02:52:56;;;;;;;;;;;;;;;-145.18;100.00;46683.84;4930222;29;20009;-66
2022/03/15 02:55:21;;;;;;;;;;;;;;;-145.18;100.00;46687.75;4930784;29;19925;-66
2022/03/15 02:57:48;;;;;;;;;;;;;;;-145.18;100.00;46685.78;4930853;29;19922;-66
2022/03/15 03:00:15;;;;;;;;;;;;;;;-145.18;100.00;46681.88;4930258;29;19957;-66
2022/03/15 03:02:40;;;;;;;;;;;;;;;-145.18;100.00;46681.88;4929752;29;19923;-66
2022/03/15 03:05:06;;;;;;;;;;;;;;;-145.18;100.00;46683.84;4930676;29;19929;-66
2022/03/15 03:07:33;;;;;;;;;;;;;;;-145.18;100.00;46676.03;4930384;29;20385;-66
2022/03/15 03:09:59;;;;;;;;;;;;;;;-145.18;100.00;46683.84;4930351;29;19922;-67
2022/03/15 03:12:26;;;;;;;;;;;;;;;-145.18;100.00;46687.75;4930140;29;19919;-67
2022/03/15 03:14:51;;;;;;;;;;;;;;;-145.18;100.00;46672.13;4931164;29;19985;-66
2022/03/15 03:17:17;;;;;;;;;;;;;;;-145.18;100.00;46674.06;4930019;29;19922;-67
2022/03/15 03:19:42;;;;;;;;;;;;;;;-145.18;100.00;46677.97;4930747;29;19922;-66
2022/03/15 03:22:08;;;;;;;;;;;;;;;-145.18;100.00;46674.06;4911873;29;19923;-67
2022/03/15 03:24:34;;;;;;;;;;;;;;;-145.18;100.00;46676.03;4929632;29;19969;-67
2022/03/15 03:27:00;;;;;;;;;;;;;;;-145.18;100.00;46679.94;4930225;29;19958;-67
2022/03/15 03:29:26;;;;;;;;;;;;;;;-145.18;100.00;46676.03;4930827;29;19923;-67
2022/03/15 03:31:51;;;;;;;;;;;;;;;-145.18;100.00;46681.88;4930620;29;20434;-67
2022/03/15 03:34:16;;;;;;;;;;;;;;;-145.18;100.00;46672.13;4929721;29;20568;-67
2022/03/15 03:36:42;;;;;;;;;;;;;;;-145.18;100.00;46674.06;4930785;29;19923;-67
2022/03/15 03:39:07;;;;;;;;;;;;;;;-145.18;100.00;46677.97;4929959;29;20372;-67
2022/03/15 03:41:32;;;;;;;;;;;;;;;-145.18;100.00;46674.06;4929971;29;19922;-66
2022/03/15 03:43:58;;;;;;;;;;;;;;;-145.18;100.00;46679.94;4930290;29;19919;-66
2022/03/15 03:46:23;;;;;;;;;;;;;;;-145.18;100.00;46677.97;4930439;29;19922;-66
2022/03/15 03:48:50;;;;;;;;;;;;;;;-145.18;100.00;46676.03;4929648;29;19923;-66
2022/03/15 03:51:16;;;;;;;;;;;;;;;-145.18;100.00;46676.03;4930026;29;19922;-66
2022/03/15 03:53:42;;;;;;;;;;;;;;;-145.18;100.00;46683.84;4932217;29;20012;-66
2022/03/15 03:56:07;;;;;;;;;;;;;;;-145.18;100.00;46677.97;4933705;29;19948;-67
2022/03/15 03:58:34;;;;;;;;;;;;;;;-145.18;100.00;46677.97;4933351;29;20398;-66
2022/03/15 04:01:00;;;;;;;;;;;;;;;-145.18;100.00;46681.88;4934253;29;19919;-67
2022/03/15 04:03:29;;;;;;;;;;;;;;;-145.18;100.00;46674.06;4933019;29;19938;-67
2022/03/15 04:05:55;;;;;;;;;;;;;;;-145.18;100.00;46672.13;4933711;29;19931;-66
2022/03/15 04:08:20;;;;;;;;;;;;;;;-145.18;100.00;46670.16;4933080;29;19922;-67
2022/03/15 04:10:46;;;;;;;;;;;;;;;-145.18;100.00;46662.34;4933853;29;20379;-66
2022/03/15 04:13:12;;;;;;;;;;;;;;;-145.18;100.00;46664.31;4932924;29;20010;-66
2022/03/15 04:15:38;;;;;;;;;;;;;;;-145.18;100.00;46674.06;4933507;29;20017;-66
2022/03/15 04:18:03;;;;;;;;;;;;;;;-145.18;100.00;46668.22;4933557;29;20017;-67
2022/03/15 04:20:29;;;;;;;;;;;;;;;-145.18;100.00;46679.94;4933598;29;19973;-66
2022/03/15 04:22:54;;;;;;;;;;;;;;;-145.18;100.00;46676.03;4932829;29;19941;-66
2022/03/15 04:25:19;;;;;;;;;;;;;;;-145.18;100.00;46677.97;4933077;29;19922;-66
2022/03/15 04:27:45;;;;;;;;;;;;;;;-145.18;100.00;46674.06;4932779;29;19966;-66
2022/03/15 04:30:10;;;;;;;;;;;;;;;-145.18;100.00;46685.78;4932859;29;20383;-67
2022/03/15 04:32:35;;;;;;;;;;;;;;;-145.18;100.00;46681.88;4933488;29;19965;-66
2022/03/15 04:35:01;;;;;;;;;;;;;;;-145.18;100.00;46679.94;4933002;29;19926;-66
2022/03/15 04:37:26;;;;;;;;;;;;;;;-145.18;100.00;46685.78;4932623;29;19934;-67
2022/03/15 04:39:51;;;;;;;;;;;;;;;-145.18;100.00;46677.97;4932792;29;19953;-66
2022/03/15 04:42:17;;;;;;;;;;;;;;;-145.18;100.00;46674.06;4915713;29;19958;-66
2022/03/15 04:44:42;;;;;;;;;;;;;;;-145.18;100.00;46679.94;4915664;29;19918;-66
2022/03/15 04:47:07;;;;;;;;;;;;;;;-145.18;100.00;46676.03;4933400;29;20343;-67
2022/03/15 04:49:34;;;;;;;;;;;;;;;-145.18;100.00;46676.03;4932208;29;20470;-66
2022/03/15 04:51:59;;;;;;;;;;;;;;;-145.18;100.00;46677.97;4932676;29;20010;-66
2022/03/15 04:54:24;;;;;;;;;;;;;;;-145.18;100.00;46672.13;4932078;29;20009;-67
2022/03/15 04:56:50;;;;;;;;;;;;;;;-145.18;100.00;46668.22;4932706;29;19970;-66
2022/03/15 04:59:16;;;;;;;;;;;;;;;-145.18;100.00;46672.13;4915019;29;19929;-66
2022/03/15 05:01:41;;;;;;;;;;;;;;;-145.18;100.00;46672.13;4932449;29;20044;-66
2022/03/15 05:04:06;;;;;;;;;;;;;;;-145.18;100.00;46670.16;4931749;29;19923;-66
2022/03/15 05:06:33;;;;;;;;;;;;;;;-145.18;100.00;46666.25;4932411;29;19923;-67
2022/03/15 05:08:58;;;;;;;;;;;;;;;-145.18;100.00;46670.16;4931742;29;19941;-67
2022/03/15 05:11:27;;;;;;;;;;;;;;;-145.18;100.00;46672.13;4932033;29;20384;-66
2022/03/15 05:13:52;;;;;;;;;;;;;;;-145.18;100.00;46664.31;4931664;29;20303;-67
2022/03/15 05:16:18;;;;;;;;;;;;;;;-145.18;100.00;46668.22;4932476;29;19923;-66
2022/03/15 05:18:44;;;;;;;;;;;;;;;-145.18;100.00;46668.22;4923237;29;19958;-66
2022/03/15 05:21:12;;;;;;;;;;;;;;;-145.18;100.00;46668.22;4922432;29;19929;-66
2022/03/15 05:23:38;;;;;;;;;;;;;;;-145.18;100.00;46662.34;4921686;29;19969;-67
2022/03/15 05:26:03;;;;;;;;;;;;;;;-145.18;100.00;46668.22;4920789;29;20362;-67
2022/03/15 05:28:28;;;;;;;;;;;;;;;-145.18;100.00;46672.13;4922718;29;19919;-66
2022/03/15 05:30:54;;;;;;;;;;;;;;;-145.18;100.00;46672.13;4921356;29;19923;-67
2022/03/15 05:33:19;;;;;;;;;;;;;;;-145.18;100.00;46668.22;4920660;29;19919;-67
2022/03/15 05:35:45;;;;;;;;;;;;;;;-145.18;100.00;46668.22;4923447;29;20021;-66
2022/03/15 05:38:10;;;;;;;;;;;;;;;-145.18;100.00;46672.13;4916473;29;19923;-67
2022/03/15 05:40:36;;;;;;;;;;;;;;;-145.18;100.00;46679.94;4929028;29;19933;-67
2022/03/15 05:43:01;;;;;;;;;;;;;;;-145.18;100.00;46670.16;4930644;29;19919;-66
2022/03/15 05:45:26;;;;;;;;;;;;;;;-145.18;100.00;46674.06;4931199;29;20009;-66
2022/03/15 05:47:52;;;;;;;;;;;;;;;-145.18;100.00;46672.13;4920366;29;19926;-66
2022/03/15 05:50:17;;;;;;;;;;;;;;;-145.18;100.00;46676.03;4921983;29;19954;-67
2022/03/15 05:52:42;;;;;;;;;;;;;;;-145.18;100.00;46674.06;4929497;29;19919;-67
2022/03/15 05:55:09;;;;;;;;;;;;;;;-145.18;100.00;46676.03;4931203;29;24809;-66
2022/03/15 05:57:34;;;;;;;;;;;;;;;-145.18;100.00;46674.06;4929840;29;19919;-67
2022/03/15 05:59:59;;;;;;;;;;;;;;;-145.18;100.00;46674.06;4928562;29;19953;-67
2022/03/15 06:02:24;;;;;;;;;;;;;;;-145.18;100.00;46670.16;4929190;29;19978;-67
2022/03/15 06:04:50;;;;;;;;;;;;;;;-145.18;100.00;46681.88;4929246;29;19931;-67
2022/03/15 06:07:15;;;;;;;;;;;;;;;-145.18;100.00;46676.03;4929267;29;19924;-66
2022/03/15 06:09:40;;;;;;;;;;;;;;;-145.18;100.00;46676.03;4929701;29;19986;-67
2022/03/15 06:12:07;;;;;;;;;;;;;;;-145.18;100.00;46676.03;4930276;29;19962;-67
2022/03/15 06:14:32;;;;;;;;;;;;;;;-145.18;100.00;46670.16;4930757;29;19925;-66
2022/03/15 06:16:57;;;;;;;;;;;;;;;-145.18;100.00;46672.13;4929930;29;19919;-67
2022/03/15 06:19:23;;;;;;;;;;;;;;;-145.18;100.00;46670.16;4931253;29;19962;-67
2022/03/15 06:21:48;;;;;;;;;;;;;;;-145.18;100.00;46676.03;4930908;29;19963;-66
2022/03/15 06:24:13;;;;;;;;;;;;;;;-145.18;100.00;46676.03;4930155;29;19926;-66
2022/03/15 06:26:39;;;;;;;;;;;;;;;-145.18;100.00;46677.97;4930771;29;20009;-66
2022/03/15 06:29:04;;;;;;;;;;;;;;;-145.18;100.00;46681.88;4930288;29;19919;-67
2022/03/15 06:31:30;;;;;;;;;;;;;;;-145.18;100.00;46683.84;4930596;29;19923;-67
2022/03/15 06:33:56;;;;;;;;;;;;;;;-145.18;100.00;46674.06;4929659;29;19922;-66
2022/03/15 06:36:21;;;;;;;;;;;;;;;-145.18;100.00;46674.06;4931484;29;19992;-67
2022/03/15 06:38:46;;;;;;;;;;;;;;;-145.18;100.00;46672.13;4926951;29;19923;-66
2022/03/15 06:41:12;;;;;;;;;;;;;;;-145.18;100.00;46672.13;4928171;29;20439;-66
2022/03/15 06:43:39;;;;;;;;;;;;;;;-145.18;100.00;46672.13;4927862;29;19938;-66
2022/03/15 06:46:04;;;;;;;;;;;;;;;-145.18;100.00;46672.13;4925092;29;19970;-67
2022/03/15 06:48:29;;;;;;;;;;;;;;;-145.18;100.00;46674.06;4928553;29;19929;-66
2022/03/15 06:50:55;;;;;;;;;;;;;;;-145.18;100.00;46676.03;4925214;29;19927;-66
2022/03/15 06:53:20;;;;;;;;;;;;;;;-145.18;100.00;46670.16;4925227;29;20371;-67
2022/03/15 06:55:46;;;;;;;;;;;;;;;-145.18;100.00;46668.22;4926434;29;19966;-67
2022/03/15 06:58:11;;;;;;;;;;;;;;;-145.18;100.00;46672.13;4924508;29;19950;-67
2022/03/15 07:00:36;;;;;;;;;;;;;;;-145.18;100.00;46676.03;4924207;29;20343;-67
2022/03/15 07:03:02;;;;;;;;;;;;;;;-145.18;100.00;46670.16;4930321;29;19923;-67
2022/03/15 07:05:27;;;;;;;;;;;;;;;-145.18;100.00;46668.22;4934770;29;19923;-66
2022/03/15 07:07:52;;;;;;;;;;;;;;;-145.18;100.00;46662.34;4925853;29;19923;-66
2022/03/15 07:10:19;;;;;;;;;;;;;;;-145.18;100.00;46666.25;4928626;29;20033;-66
2022/03/15 07:12:44;;;;;;;;;;;;;;;-145.18;100.00;46666.25;4945943;29;19925;-66
2022/03/15 07:15:10;;;;;;;;;;;;;;;-145.18;100.00;46666.25;4943874;29;19918;-66
2022/03/15 07:17:36;;;;;;;;;;;;;;;-145.18;100.00;46662.34;4946256;29;19946;-66
2022/03/15 07:20:01;;;;;;;;;;;;;;;-145.18;100.00;46658.44;4946310;29;20355;-66
2022/03/15 07:22:27;;;;;;;;;;;;;;;-145.18;100.00;46650.63;4924107;29;19922;-66
2022/03/15 07:24:52;;;;;;;;;;;;;;;-145.18;100.00;46648.69;4926879;29;20276;-66
2022/03/15 07:27:21;;;;;;;;;;;;;;;-145.18;100.00;46638.91;4928688;28;19923;-66
2022/03/15 07:29:46;;;;;;;;;;;;;;;-145.18;100.00;46625.22;4928338;29;20507;-66
2022/03/15 07:32:11;;;;;;;;;;;;;;;-145.18;100.00;46623.28;4928576;29;19925;-66
2022/03/15 07:34:37;;;;;;;;;;;;;;;-145.18;100.00;46613.50;4928222;29;19925;-67
2022/03/15 07:37:02;;;;;;;;;;;;;;;-145.18;100.00;46623.28;4937810;29;19992;-66
2022/03/15 07:39:28;;;;;;;;;;;;;;;-145.18;100.00;46619.38;4930579;29;20014;-66
2022/03/15 07:41:55;;;;;;;;;;;;;;;-145.18;100.00;46615.47;4932480;29;20406;-67
2022/03/15 07:44:20;;;;;;;;;;;;;;;-145.18;100.00;46621.31;4948417;29;19941;-66
2022/03/15 07:46:48;;;;;;;;;;;;;;;-145.18;100.00;46619.38;4933294;29;20326;-66
2022/03/15 07:49:18;;;;;;;;;;;;;;;-145.18;100.00;46629.13;4928756;29;19962;-67
2022/03/15 07:51:43;;;;;;;;;;;;;;;-145.18;100.00;46629.13;4930525;29;19929;-67
2022/03/15 07:54:09;;;;;;;;;;;;;;;-145.18;100.00;46629.13;4946396;29;20347;-66
2022/03/15 07:56:34;;;;;;;;;;;;;;;-145.18;100.00;46623.28;4950445;29;19919;-66
2022/03/15 07:58:59;;;;;;;;;;;;;;;-145.18;100.00;46617.41;4949503;29;20423;-66
2022/03/15 08:01:24;;;;;;;;;;;;;;;-145.18;100.00;46613.50;4948827;29;20331;-67
2022/03/15 08:03:50;;;;;;;;;;;;;;;-145.18;100.00;46593.97;4928414;29;19933;-66
2022/03/15 08:06:15;;;;;;;;;;;;;;;-145.18;100.00;46578.34;4928917;29;19923;-66
2022/03/15 08:08:42;;;;;;;;;;;;;;;-145.18;100.00;46576.41;4930458;29;20017;-66
2022/03/15 08:11:07;;;;;;;;;;;;;;;-145.18;100.00;46574.44;4927857;29;19952;-66
2022/03/15 08:13:34;;;;;;;;;;;;;;;-145.18;100.00;46570.53;4930365;29;19918;-67
2022/03/15 08:15:59;;;;;;;;;;;;;;;-145.18;100.00;46562.72;4930449;29;19968;-67
2022/03/15 08:18:25;;;;;;;;;;;;;;;-145.18;100.00;46560.78;4929518;29;20395;-66
2022/03/15 08:20:51;;;;;;;;;;;;;;;-145.18;100.00;46562.72;4928015;29;19981;-67
2022/03/15 08:23:17;;;;;;;;;;;;;;;-145.18;100.00;46560.78;4921891;29;20310;-66
2022/03/15 08:25:42;;;;;;;;;;;;;;;-145.18;100.00;46558.81;4925469;29;19930;-67
2022/03/15 08:28:07;;;;;;;;;;;;;;;-145.18;100.00;46554.91;4929586;29;19926;-67
2022/03/15 08:30:33;;;;;;;;;;;;;;;-145.18;100.00;46556.88;4916203;29;19927;-67
2022/03/15 08:32:58;;;;;;;;;;;;;;;-145.18;100.00;46545.16;4926908;29;19923;-67
2022/03/15 08:35:23;;;;;;;;;;;;;;;-145.18;100.00;46537.34;4930643;29;19926;-67
2022/03/15 08:37:53;;;;;;;;;;;;;;;-145.18;100.00;46533.44;4929814;29;19922;-67
2022/03/15 08:40:19;;;;;;;;;;;;;;;-145.18;100.00;46527.56;4926709;29;19927;-66
2022/03/15 08:42:45;;;;;;;;;;;;;;;-145.18;100.00;46523.66;4930300;29;20299;-67
2022/03/15 08:45:10;;;;;;;;;;;;;;;-145.18;100.00;46521.72;4929763;29;19923;-67
2022/03/15 08:47:36;;;;;;;;;;;;;;;-145.18;100.00;46523.66;4925721;29;19930;-67
2022/03/15 08:50:03;;;;;;;;;;;;;;;-145.18;100.00;46523.66;4928722;29;19918;-67
2022/03/15 08:52:29;;;;;;;;;;;;;;;-145.18;100.00;46517.81;4929263;29;19919;-67
2022/03/15 08:54:54;;;;;;;;;;;;;;;-145.18;100.00;46527.56;4909876;29;19930;-67
2022/03/15 08:57:20;;;;;;;;;;;;;;;-145.18;100.00;46535.38;4928991;29;19954;-67
2022/03/15 08:59:46;;;;;;;;;;;;;;;-145.18;100.00;46531.47;4921895;29;19926;-67
2022/03/15 09:02:12;;;;;;;;;;;;;;;-145.18;100.00;46535.38;4926390;29;19934;-67
2022/03/15 09:04:37;;;;;;;;;;;;;;;-145.18;100.00;46543.19;4922152;29;19957;-67
2022/03/15 09:07:03;;;;;;;;;;;;;;;-145.18;100.00;46539.28;4926006;29;20291;-67
2022/03/15 09:09:28;;;;;;;;;;;;;;;-145.18;100.00;46535.38;4924076;29;19923;-67
2022/03/15 09:11:53;;;;;;;;;;;;;;;-145.18;100.00;46537.34;4919654;29;19937;-67
2022/03/15 09:14:19;;;;;;;;;;;;;;;-145.18;100.00;46535.38;4922194;29;20387;-67
2022/03/15 09:16:44;;;;;;;;;;;;;;;-145.18;100.00;46545.16;4924027;29;19926;-66
2022/03/15 09:19:11;;;;;;;;;;;;;;;-145.18;100.00;46533.44;4918682;29;19954;-67
2022/03/15 09:21:36;;;;;;;;;;;;;;;-145.18;100.00;46533.44;4914583;29;20334;-66
2022/03/15 09:24:02;;;;;;;;;;;;;;;-145.18;100.00;46531.47;4920837;29;19919;-67
2022/03/15 09:26:27;;;;;;;;;;;;;;;-145.18;100.00;46535.38;4927443;29;19930;-67
2022/03/15 09:28:53;;;;;;;;;;;;;;;-145.18;100.00;46549.06;4909790;29;20010;-67
2022/03/15 09:31:20;;;;;;;;;;;;;;;-145.18;100.00;46549.06;4928059;29;19993;-66
2022/03/15 09:33:45;;;;;;;;;;;;;;;-145.18;100.00;46547.09;4929074;29;20532;-67
2022/03/15 09:36:11;;;;;;;;;;;;;;;-145.18;100.00;46551.00;4928169;29;20048;-67
2022/03/15 09:38:37;;;;;;;;;;;;;;;-145.18;100.00;46545.16;4928083;29;19953;-67
2022/03/15 09:41:04;;;;;;;;;;;;;;;-145.18;100.00;46554.91;4923265;29;19965;-66
2022/03/15 09:43:34;;;;;;;;;;;;;;;-145.18;100.00;46562.72;4922211;29;20625;-66
2022/03/15 09:46:00;;;;;;;;;;;;;;;-145.18;100.00;46552.97;4924291;29;20372;-66
2022/03/15 09:48:26;;;;;;;;;;;;;;;-145.18;100.00;46552.97;4924045;29;20328;-66
2022/03/15 09:50:52;;;;;;;;;;;;;;;-145.18;100.00;46560.78;4923218;29;19922;-67
2022/03/15 09:53:17;;;;;;;;;;;;;;;-145.18;100.00;46564.69;4921670;29;19966;-67
2022/03/15 09:55:45;;;;;;;;;;;;;;;-145.18;100.00;46562.72;4918843;29;20445;-67
2022/03/15 09:58:11;;;;;;;;;;;;;;;-145.18;100.00;46570.53;4918609;29;19923;-67
2022/03/15 10:00:37;;;;;;;;;;;;;;;-145.18;100.00;46566.63;4926252;29;20009;-67
2022/03/15 10:03:03;;;;;;;;;;;;;;;-145.18;100.00;46570.53;4924176;29;20364;-67
2022/03/15 10:05:28;;;;;;;;;;;;;;;-145.18;100.00;46570.53;4927390;29;19974;-67
2022/03/15 10:07:53;;;;;;;;;;;;;;;-145.18;100.00;46572.50;4928443;29;19919;-67
2022/03/15 10:10:18;;;;;;;;;;;;;;;-145.18;100.00;46576.41;4930634;29;20399;-66
2022/03/15 10:12:44;;;;;;;;;;;;;;;-145.18;100.00;46562.72;4928282;29;19922;-67
2022/03/15 10:15:16;;;;;;;;;;;;;;;-145.18;100.00;46574.44;4926501;29;20407;-67
2022/03/15 10:17:55;;;;;;;;;;;;;;;-145.18;100.00;46578.34;4928698;29;19929;-66
2022/03/15 10:20:25;;;;;;;;;;;;;;;-145.18;100.00;46570.53;4926515;29;19917;-67
2022/03/15 10:22:57;;;;;;;;;;;;;;;-145.18;100.00;46554.91;4927968;29;19977;-67
2022/03/15 10:25:24;;;;;;;;;;;;;;;-145.18;100.00;46570.53;4927054;29;20025;-67
2022/03/15 10:27:53;;;;;;;;;;;;;;;-145.18;100.00;46566.63;4928684;29;19925;-67
2022/03/15 10:30:59;;;;;;;25.33;12.55;;;;;;;-145.18;100.00;46566.63;5060277;27;20760;-67
2022/03/15 10:33:26;;;;;;;25.43;12.77;;;;;;;-145.18;100.00;46556.88;5047561;28;20037;-67
2022/03/15 10:35:53;;;;;;;34.57;14.57;;;;;;;-145.18;100.00;46564.69;5042151;28;20273;-67
2022/03/15 10:38:19;;;;;;;27.83;13.60;;;;;;;-145.18;100.00;46564.69;5040848;28;20286;-67
2022/03/15 10:40:48;;;;;;;22.13;13.30;;;;;;;-145.18;100.00;46560.78;5057739;28;20273;-67
2022/03/15 10:43:25;;;;;;;23.27;14.23;;;;;;;-145.18;100.00;46566.63;5043045;28;20079;-67
2022/03/15 10:45:57;;;;;;;21.07;13.77;;;;;;;-145.18;100.00;46554.91;5047526;28;20801;-67
2022/03/15 10:48:24;;;;;;;20.73;12.87;;;;;;;-145.18;100.00;46560.78;5047859;28;20273;-67
2022/03/15 10:50:55;;;;;;;30.23;13.63;;;;;;;-145.18;100.00;46562.72;5046544;28;20545;-67
2022/03/15 10:53:23;;;;;;;22.63;11.70;;;;;;;-145.18;100.00;46566.63;5042076;28;20280;-67
2022/03/15 10:55:48;;;;;;;21.87;12.33;;;;;;;-145.18;100.00;46560.78;5051557;28;20289;-67
2022/03/15 10:58:21;;;;;;;30.07;12.77;;;;;;;-145.18;100.00;46572.50;5057771;28;20347;-67
2022/03/15 11:00:50;;;;;;;27.13;13.10;;;;;;;-145.18;100.00;46578.34;5052550;28;20041;-67
2022/03/15 11:03:23;;;;;;;30.47;12.60;;;;;;;-145.18;100.00;46592.03;5055172;28;20274;-67
2022/03/15 11:05:50;;;;;;;24.20;12.73;;;;;;;-145.18;100.00;46592.03;5052124;28;20317;-67
2022/03/15 11:08:17;;;;;;;32.13;13.23;;;;;;;-145.18;100.00;46586.16;5051379;28;20441;-67
2022/03/15 11:10:49;;;;;;;32.50;13.87;;;;;;;-145.18;100.00;46566.63;5051534;28;20786;-68
2022/03/15 11:13:15;;;;;;;22.10;12.23;;;;;;;-145.18;100.00;46582.25;5081073;27;21066;-67
2022/03/15 11:15:42;;;;;;;24.70;11.67;;;;;;;-145.18;100.00;46584.22;5081187;27;20354;-67
2022/03/15 11:18:13;;;;;;;19.90;10.47;;;;;;;-145.18;100.00;46599.84;5080897;27;20274;-68
2022/03/15 11:20:42;;;;;;;18.60;9.93;;;;;;;-145.18;100.00;46599.84;5080773;27;20258;-67
2022/03/15 11:23:10;;;;;;;21.83;9.00;;;;;;;-145.18;100.00;46605.69;5081425;27;20285;-67
2022/03/15 11:25:39;;;;;;;18.10;9.53;;;;;;;-145.18;100.00;46607.66;5080367;27;20334;-67
2022/03/15 11:28:07;;;;;;;15.67;9.93;;;;;;;-145.18;100.00;46597.88;5080490;27;20311;-67
2022/03/15 11:30:33;;;;;;;22.90;9.37;;;;;;;-145.18;100.00;46584.22;5080335;27;20376;-67
2022/03/15 11:33:01;;;;;;;14.27;8.57;;;;;;;-145.18;100.00;46613.50;5080492;27;20742;-68
2022/03/15 11:35:28;;;;;;;20.70;9.57;;;;;;;-145.18;100.00;46619.38;5081233;27;20036;-67
2022/03/15 11:37:54;;;;;;;16.53;9.23;;;;;;;-145.18;100.00;46609.59;5078802;28;20277;-68
2022/03/15 11:40:20;;;;;;;18.10;9.77;;;;;;;-145.18;100.00;46597.88;5078018;27;20333;-68
2022/03/15 11:42:48;;;;;;;20.67;8.50;;;;;;;-145.18;100.00;46627.19;5067527;28;20036;-68
2022/03/15 11:45:25;;;;;;;20.80;8.37;;;;;;;-145.18;100.00;46656.50;5066680;28;20032;-67
2022/03/15 11:48:15;;;;;;;21.67;9.80;;;;;;;-145.18;100.00;46662.34;5063093;28;20270;-68
2022/03/15 11:51:08;;;;;;;16.43;8.87;;;;;;;-145.18;100.00;46635.00;5066821;28;20258;-68
2022/03/15 11:53:52;;;;;;;15.80;8.43;;;;;;;-145.18;100.00;46640.88;5067284;28;20308;-68
2022/03/15 11:56:43;;;;;;;19.20;9.57;;;;;;;-145.18;100.00;46603.75;5064920;28;20250;-67
2022/03/15 11:59:08;;;;;;;12.67;7.67;;;;;;;-145.18;100.00;46822.53;5066925;28;20368;-67
2022/03/15 12:01:43;;;;;;;15.80;7.80;;;;;;;-145.18;100.00;47318.72;5066732;28;20352;-67